Time;durP1;ratioP1;P1;durP2;ratioP2;P2;SDS_P1;SDS_P2;PMS_P1;PMS_P2;Temp;Humidity;BMP_temperature;BMP_pressure;BME280_temperature;BME280_humidity;BME280_pressure;Samples;Min_cycle;Max_cycle;Signal;HPM_P1;HPM_P2
2024/02/15 00:00:21;;;;;;;50.58;47.15;;;;;;;;;;4144831;28;20054;-79
2024/02/15 00:02:23;;;;;;;48.63;45.47;;;;;;;;;;4161876;28;20509;-79
2024/02/15 00:04:25;;;;;;;46.42;43.67;;;;;;;;;;4162022;28;20076;-79
2024/02/15 00:06:27;;;;;;;48.17;44.97;;;;;;;;;;4162746;28;20040;-78
2024/02/15 00:08:29;;;;;;;47.07;44.03;;;;;;;;;;4180402;28;20044;-79
2024/02/15 00:10:31;;;;;;;47.10;44.03;;;;;;;;;;4180426;28;20687;-79
2024/02/15 00:12:33;;;;;;;49.30;46.10;;;;;;;;;;4180501;28;20397;-79
2024/02/15 00:14:38;;;;;;;50.42;46.65;;;;;;;;;;4162660;28;20049;-79
2024/02/15 00:16:39;;;;;;;48.35;45.15;;;;;;;;;;4163205;28;20116;-79
2024/02/15 00:18:41;;;;;;;49.65;46.50;;;;;;;;;;4146557;28;20502;-79
2024/02/15 00:20:44;;;;;;;47.63;44.40;;;;;;;;;;4180489;28;20095;-79
2024/02/15 00:22:47;;;;;;;;;;;;;;;;;;4180812;28;20049;-78
2024/02/15 00:24:50;;;;;;;51.58;48.17;;;;;;;;;;4163153;28;19932;-79
2024/02/15 00:26:53;;;;;;;50.45;46.97;;;;;;;;;;4180475;28;20044;-79
2024/02/15 00:28:55;;;;;;;48.65;45.10;;;;;;;;;;4162816;28;20483;-79
2024/02/15 00:30:57;;;;;;;51.07;47.57;;;;;;;;;;4163069;28;20041;-79
2024/02/15 00:32:59;;;;;;;47.90;44.77;;;;;;;;;;4163066;28;20088;-79
2024/02/15 00:35:01;;;;;;;;;;;;;;;;;;4163190;28;20316;-79
2024/02/15 00:37:03;;;;;;;49.15;46.38;;;;;;;;;;4162690;28;20039;-79
2024/02/15 00:39:05;;;;;;;45.43;42.67;;;;;;;;;;4180258;28;20080;-79
2024/02/15 00:41:07;;;;;;;48.00;44.70;;;;;;;;;;4162602;28;20053;-79
2024/02/15 00:43:09;;;;;;;47.42;44.72;;;;;;;;;;4165093;28;20467;-79
2024/02/15 00:45:11;;;;;;;44.58;41.85;;;;;;;;;;4165616;28;20038;-79
2024/02/15 00:47:13;;;;;;;44.40;42.08;;;;;;;;;;4149581;28;20042;-78
2024/02/15 00:49:14;;;;;;;44.05;41.60;;;;;;;;;;4166242;28;20029;-78
2024/02/15 00:51:17;;;;;;;44.72;42.13;;;;;;;;;;4183543;28;20045;-76
2024/02/15 00:53:20;;;;;;;46.10;43.50;;;;;;;;;;4165921;28;20049;-76
2024/02/15 00:55:21;;;;;;;44.92;42.38;;;;;;;;;;4165482;28;20491;-76
2024/02/15 00:57:23;;;;;;;46.72;44.00;;;;;;;;;;4165887;28;20072;-76
2024/02/15 00:59:25;;;;;;;46.77;44.00;;;;;;;;;;4183527;28;20044;-76
2024/02/15 01:01:26;;;;;;;47.00;44.13;;;;;;;;;;4183214;28;20382;-76
2024/02/15 01:03:28;;;;;;;48.35;45.65;;;;;;;;;;4183300;28;20440;-76
2024/02/15 01:05:30;;;;;;;48.45;45.28;;;;;;;;;;4149245;28;20049;-76
2024/02/15 01:07:33;;;;;;;47.00;44.20;;;;;;;;;;4165589;28;20135;-76
2024/02/15 01:09:34;;;;;;;;;;;;;;;;;;4183835;28;20481;-76
2024/02/15 01:11:37;;;;;;;48.50;45.90;;;;;;;;;;4183256;28;19920;-76
2024/02/15 01:13:39;;;;;;;46.53;43.65;;;;;;;;;;4165499;28;20127;-76
2024/02/15 01:15:41;;;;;;;49.03;45.43;;;;;;;;;;4165521;28;20072;-76
2024/02/15 01:17:42;;;;;;;48.97;45.78;;;;;;;;;;4165497;28;20746;-76
2024/02/15 01:19:44;;;;;;;45.70;42.95;;;;;;;;;;4165436;28;20060;-77
2024/02/15 01:21:46;;;;;;;49.88;46.88;;;;;;;;;;4149060;28;20050;-78
2024/02/15 01:23:48;;;;;;;42.90;40.87;;;;;;;;;;4165503;28;20045;-78
2024/02/15 01:25:50;;;;;;;45.20;42.80;;;;;;;;;;4165296;28;20300;-77
2024/02/15 01:27:52;;;;;;;48.90;45.88;;;;;;;;;;4183060;28;20037;-78
2024/02/15 01:29:53;;;;;;;52.10;48.60;;;;;;;;;;4165372;28;20041;-78
2024/02/15 01:31:55;;;;;;;45.90;43.28;;;;;;;;;;4148855;28;20571;-78
2024/02/15 01:33:57;;;;;;;42.95;40.70;;;;;;;;;;4165215;28;20057;-77
2024/02/15 01:35:59;;;;;;;42.20;40.42;;;;;;;;;;4165117;28;20616;-78
2024/02/15 01:38:01;;;;;;;41.07;39.10;;;;;;;;;;4165165;28;20489;-78
2024/02/15 01:40:03;;;;;;;42.13;40.10;;;;;;;;;;4165216;28;20088;-78
2024/02/15 01:42:05;;;;;;;42.75;40.50;;;;;;;;;;4148613;28;20061;-78
2024/02/15 01:44:07;;;;;;;43.33;41.05;;;;;;;;;;4182827;28;20047;-78
2024/02/15 01:46:09;;;;;;;45.38;42.67;;;;;;;;;;4148864;28;20042;-78
2024/02/15 01:48:11;;;;;;;46.97;44.20;;;;;;;;;;4164983;28;20049;-78
2024/02/15 01:50:13;;;;;;;47.95;45.15;;;;;;;;;;4165282;28;20042;-77
2024/02/15 01:52:15;;;;;;;47.88;45.17;;;;;;;;;;4164735;28;20046;-78
2024/02/15 01:54:18;;;;;;;49.15;45.85;;;;;;;;;;4164023;28;20049;-78
2024/02/15 01:56:20;;;;;;;46.08;43.05;;;;;;;;;;4182314;28;20049;-78
2024/02/15 01:58:22;;;;;;;46.13;43.10;;;;;;;;;;4162932;28;20044;-77
2024/02/15 02:00:24;;;;;;;48.25;45.30;;;;;;;;;;4163729;28;20045;-79
2024/02/15 02:02:29;;;;;;;45.13;42.33;;;;;;;;;;4174078;28;20526;-77
2024/02/15 02:04:31;;;;;;;41.55;39.28;;;;;;;;;;4146777;28;20288;-77
2024/02/15 02:06:33;;;;;;;48.15;45.22;;;;;;;;;;4164927;28;20033;-78
2024/02/15 02:08:35;;;;;;;47.38;44.35;;;;;;;;;;4147566;28;20415;-78
2024/02/15 02:10:37;;;;;;;46.33;43.70;;;;;;;;;;4147636;28;20125;-78
2024/02/15 02:12:39;;;;;;;47.40;44.97;;;;;;;;;;4147528;28;20496;-78
2024/02/15 02:14:41;;;;;;;46.42;43.70;;;;;;;;;;4131439;28;20053;-77
2024/02/15 02:16:43;;;;;;;45.08;42.60;;;;;;;;;;4148416;28;20048;-78
2024/02/15 02:18:46;;;;;;;46.72;44.13;;;;;;;;;;4166097;28;20060;-77
2024/02/15 02:20:48;;;;;;;48.13;45.38;;;;;;;;;;4165950;28;20128;-77
2024/02/15 02:22:51;;;;;;;49.08;46.08;;;;;;;;;;4147872;28;20498;-78
2024/02/15 02:25:06;;;;;;;45.55;42.92;;;;;;;;;;4148452;28;20085;-78
2024/02/15 02:27:10;;;;;;;47.65;44.85;;;;;;;;;;4148299;28;20474;-78
2024/02/15 02:29:12;;;;;;;50.45;47.22;;;;;;;;;;4131944;28;20042;-78
2024/02/15 02:31:14;;;;;;;48.47;45.50;;;;;;;;;;4148328;28;20045;-78
2024/02/15 02:33:18;;;;;;;46.75;44.10;;;;;;;;;;4162867;28;20588;-78
2024/02/15 02:35:21;;;;;;;46.80;44.08;;;;;;;;;;4164260;28;20046;-78
2024/02/15 02:37:24;;;;;;;48.22;45.33;;;;;;;;;;4181977;28;20036;-78
2024/02/15 02:39:31;;;;;;;41.92;39.92;;;;;;;;;;4148146;28;20145;-77
2024/02/15 02:41:33;;;;;;;45.58;43.28;;;;;;;;;;4182155;28;20075;-78
2024/02/15 02:43:34;;;;;;;47.17;44.53;;;;;;;;;;4164023;28;20136;-77
2024/02/15 02:45:36;;;;;;;47.43;44.60;;;;;;;;;;4147492;28;20263;-78
2024/02/15 02:47:38;;;;;;;47.55;44.75;;;;;;;;;;4181782;28;20037;-78
2024/02/15 02:49:40;;;;;;;48.13;44.90;;;;;;;;;;4163879;28;20456;-78
2024/02/15 02:51:42;;;;;;;46.77;44.57;;;;;;;;;;4181501;28;20654;-78
2024/02/15 02:53:44;;;;;;;;;;;;;;;;;;4182242;28;20041;-78
2024/02/15 02:55:46;;;;;;;45.35;42.95;;;;;;;;;;4164042;28;19972;-78
2024/02/15 02:57:47;;;;;;;49.88;46.78;;;;;;;;;;4163855;28;20137;-78
2024/02/15 02:59:49;;;;;;;51.77;48.53;;;;;;;;;;4163977;28;20041;-78
2024/02/15 03:01:51;;;;;;;46.63;43.97;;;;;;;;;;4146997;28;20042;-78
2024/02/15 03:03:55;;;;;;;48.47;45.63;;;;;;;;;;4180304;28;20326;-78
2024/02/15 03:05:56;;;;;;;51.60;48.47;;;;;;;;;;4147360;28;20137;-78
2024/02/15 03:07:58;;;;;;;50.17;47.17;;;;;;;;;;4163744;28;20050;-77
2024/02/15 03:10:10;;;;;;;50.80;47.83;;;;;;;;;;4163700;28;20092;-77
2024/02/15 03:12:11;;;;;;;45.97;43.45;;;;;;;;;;4163861;28;20501;-78
2024/02/15 03:14:13;;;;;;;49.45;46.40;;;;;;;;;;4147284;28;20053;-78
2024/02/15 03:16:16;;;;;;;50.85;47.97;;;;;;;;;;4163657;28;20479;-78
2024/02/15 03:18:18;;;;;;;48.63;45.90;;;;;;;;;;4181311;28;20045;-78
2024/02/15 03:20:20;;;;;;;48.80;45.73;;;;;;;;;;4181248;28;20294;-78
2024/02/15 03:22:25;;;;;;;48.88;46.35;;;;;;;;;;4163460;28;20331;-79
2024/02/15 03:24:27;;;;;;;45.22;42.83;;;;;;;;;;4181036;28;20041;-78
2024/02/15 03:26:30;;;;;;;47.50;45.15;;;;;;;;;;4181448;28;20044;-78
2024/02/15 03:28:32;;;;;;;45.15;42.85;;;;;;;;;;4163250;28;20137;-79
2024/02/15 03:30:34;;;;;;;43.40;41.00;;;;;;;;;;4181228;28;20041;-79
2024/02/15 03:32:37;;;;;;;48.13;45.67;;;;;;;;;;4181596;28;20040;-78
2024/02/15 03:34:39;;;;;;;46.35;43.85;;;;;;;;;;4181091;28;20076;-78
2024/02/15 03:36:41;;;;;;;47.55;45.03;;;;;;;;;;4163371;28;20041;-78
2024/02/15 03:38:44;;;;;;;47.17;44.60;;;;;;;;;;4163426;28;20117;-78
2024/02/15 03:40:46;;;;;;;43.70;41.50;;;;;;;;;;4163181;28;20560;-78
2024/02/15 03:42:50;;;;;;;45.77;43.27;;;;;;;;;;4163492;28;20038;-78
2024/02/15 03:44:54;;;;;;;47.05;44.55;;;;;;;;;;4162923;28;20284;-78
2024/02/15 03:46:57;;;;;;;46.72;43.83;;;;;;;;;;4163118;28;20046;-78
2024/02/15 03:49:01;;;;;;;47.28;44.35;;;;;;;;;;4180907;28;20045;-78
2024/02/15 03:51:03;;;;;;;;;;;;;;;;;;4162523;28;20044;-78
2024/02/15 03:53:06;;;;;;;47.53;45.10;;;;;;;;;;4146824;28;19961;-79
2024/02/15 03:55:10;;;;;;;45.05;42.53;;;;;;;;;;4147139;28;20042;-78
2024/02/15 03:57:12;;;;;;;44.28;42.08;;;;;;;;;;4146742;28;20502;-78
2024/02/15 03:59:14;;;;;;;46.80;44.00;;;;;;;;;;4146736;28;20072;-78
2024/02/15 04:01:16;;;;;;;43.88;41.20;;;;;;;;;;4164092;28;20072;-79
2024/02/15 04:03:18;;;;;;;48.17;45.08;;;;;;;;;;4146316;28;20085;-78
2024/02/15 04:05:21;;;;;;;50.72;47.47;;;;;;;;;;4146583;28;20045;-78
2024/02/15 04:07:26;;;;;;;50.90;47.95;;;;;;;;;;4164327;28;20068;-78
2024/02/15 04:09:28;;;;;;;47.72;45.03;;;;;;;;;;4164178;28;20048;-78
2024/02/15 04:11:30;;;;;;;51.85;48.63;;;;;;;;;;4146725;28;20461;-78
2024/02/15 04:13:32;;;;;;;48.70;46.15;;;;;;;;;;4164134;28;20080;-78
2024/02/15 04:15:33;;;;;;;48.67;46.35;;;;;;;;;;4146639;28;20429;-78
2024/02/15 04:17:35;;;;;;;44.40;41.90;;;;;;;;;;4163626;28;20452;-78
2024/02/15 04:19:37;;;;;;;48.13;45.53;;;;;;;;;;4130395;28;20471;-78
2024/02/15 04:21:40;;;;;;;43.72;41.50;;;;;;;;;;4164012;28;20053;-79
2024/02/15 04:23:41;;;;;;;44.15;41.58;;;;;;;;;;4130334;28;20039;-76
2024/02/15 04:25:46;;;;;;;47.03;44.70;;;;;;;;;;4178590;28;20044;-76
2024/02/15 04:27:49;;;;;;;44.08;41.78;;;;;;;;;;4180640;28;20518;-76
2024/02/15 04:29:51;;;;;;;47.72;44.88;;;;;;;;;;4162961;28;20068;-76
2024/02/15 04:31:54;;;;;;;46.83;44.20;;;;;;;;;;4180701;28;20115;-77
2024/02/15 04:33:56;;;;;;;44.05;41.33;;;;;;;;;;4162742;28;20324;-76
2024/02/15 04:35:58;;;;;;;44.75;42.15;;;;;;;;;;4162576;28;20045;-76
2024/02/15 04:38:00;;;;;;;45.28;42.60;;;;;;;;;;4180331;28;20048;-76
2024/02/15 04:40:08;;;;;;;45.75;43.67;;;;;;;;;;4180318;28;20038;-76
2024/02/15 04:42:11;;;;;;;48.50;46.10;;;;;;;;;;4162608;28;20049;-76
2024/02/15 04:44:13;;;;;;;45.72;43.65;;;;;;;;;;4162462;28;20107;-77
2024/02/15 04:46:14;;;;;;;47.65;44.65;;;;;;;;;;4162545;28;20097;-76
2024/02/15 04:48:17;;;;;;;45.47;43.15;;;;;;;;;;4162691;28;20580;-76
2024/02/15 04:50:20;;;;;;;44.15;41.85;;;;;;;;;;4162583;28;20042;-76
2024/02/15 04:52:23;;;;;;;46.65;43.55;;;;;;;;;;4180485;28;20048;-76
2024/02/15 04:54:26;;;;;;;48.20;45.28;;;;;;;;;;4162432;28;20501;-76
2024/02/15 04:56:28;;;;;;;46.90;44.22;;;;;;;;;;4180550;28;20262;-76
2024/02/15 04:58:30;;;;;;;;;;;;;;;;;;4129469;28;20050;-76
2024/02/15 05:00:31;;;;;;;48.80;46.05;;;;;;;;;;4162160;28;19921;-76
2024/02/15 05:02:36;;;;;;;44.88;42.50;;;;;;;;;;4180033;28;20049;-76
2024/02/15 05:04:38;;;;;;;39.88;38.03;;;;;;;;;;4146866;28;20045;-76
2024/02/15 05:06:40;;;;;;;38.95;37.50;;;;;;;;;;4162455;28;20045;-76
2024/02/15 05:08:42;;;;;;;43.30;41.55;;;;;;;;;;4180155;28;20116;-76
2024/02/15 05:10:45;;;;;;;41.42;39.80;;;;;;;;;;4162624;28;20052;-76
2024/02/15 05:12:50;;;;;;;43.50;41.35;;;;;;;;;;4178414;28;20076;-76
2024/02/15 05:14:53;;;;;;;40.25;38.70;;;;;;;;;;4152982;28;20084;-76
2024/02/15 05:16:55;;;;;;;41.58;39.80;;;;;;;;;;4174311;28;20122;-76
2024/02/15 05:18:57;;;;;;;38.67;37.10;;;;;;;;;;4146283;28;20046;-76
2024/02/15 05:21:00;;;;;;;44.85;43.00;;;;;;;;;;4161705;28;20525;-76
2024/02/15 05:23:02;;;;;;;43.17;41.17;;;;;;;;;;4161408;28;20060;-76
2024/02/15 05:25:05;;;;;;;43.65;41.65;;;;;;;;;;4148209;28;20050;-76
2024/02/15 05:27:07;;;;;;;44.22;42.38;;;;;;;;;;4178970;28;20051;-76
2024/02/15 05:29:11;;;;;;;44.00;42.03;;;;;;;;;;4146483;28;20072;-76
2024/02/15 05:31:17;;;;;;;43.08;40.83;;;;;;;;;;4183066;28;20052;-76
2024/02/15 05:33:18;;;;;;;46.75;44.35;;;;;;;;;;4165639;28;20571;-77
2024/02/15 05:35:20;;;;;;;45.88;43.35;;;;;;;;;;4165251;28;20042;-77
2024/02/15 05:37:23;;;;;;;47.90;45.33;;;;;;;;;;4148586;28;20050;-77
2024/02/15 05:39:25;;;;;;;49.47;46.78;;;;;;;;;;4182883;28;20443;-77
2024/02/15 05:41:27;;;;;;;47.13;44.50;;;;;;;;;;4165394;28;20125;-77
2024/02/15 05:43:28;;;;;;;42.95;40.85;;;;;;;;;;4148536;28;20620;-77
2024/02/15 05:45:34;;;;;;;46.80;44.40;;;;;;;;;;4163919;28;20037;-77
2024/02/15 05:47:36;;;;;;;45.40;43.22;;;;;;;;;;4148649;28;20379;-77
2024/02/15 05:49:37;;;;;;;41.73;40.03;;;;;;;;;;4148836;28;20497;-77
2024/02/15 05:51:39;;;;;;;39.53;38.03;;;;;;;;;;4164956;28;20383;-77
2024/02/15 05:53:43;;;;;;;41.78;40.17;;;;;;;;;;4148840;28;20056;-77
2024/02/15 05:55:45;;;;;;;40.83;39.20;;;;;;;;;;4164890;28;20053;-77
2024/02/15 05:57:46;;;;;;;41.30;39.60;;;;;;;;;;4145634;28;20058;-77
2024/02/15 05:59:49;;;;;;;42.47;40.55;;;;;;;;;;4180170;28;20284;-77
2024/02/15 06:01:51;;;;;;;39.90;38.42;;;;;;;;;;4137671;28;20049;-77
2024/02/15 06:03:55;;;;;;;39.17;37.67;;;;;;;;;;4148338;28;20042;-78
2024/02/15 06:05:58;;;;;;;42.45;40.72;;;;;;;;;;4148705;28;20045;-77
2024/02/15 06:08:00;;;;;;;46.58;44.03;;;;;;;;;;4132207;28;20049;-77
2024/02/15 06:10:03;;;;;;;48.08;45.40;;;;;;;;;;4148284;28;20042;-77
2024/02/15 06:12:05;;;;;;;;;;;;;;;;;;4148400;28;20540;-77
2024/02/15 06:14:07;;;;;;;52.83;49.33;;;;;;;;;;4132055;28;19928;-77
2024/02/15 06:16:09;;;;;;;45.83;43.00;;;;;;;;;;4148126;28;20077;-77
2024/02/15 06:18:15;;;;;;;46.35;44.05;;;;;;;;;;4179245;28;20093;-77
2024/02/15 06:20:21;;;;;;;45.28;42.25;;;;;;;;;;4164384;28;20068;-77
2024/02/15 06:22:24;;;;;;;46.58;44.03;;;;;;;;;;4148155;28;20046;-80
2024/02/15 06:24:28;;;;;;;54.47;51.03;;;;;;;;;;4182162;28;20041;-80
2024/02/15 06:26:29;;;;;;;47.72;44.97;;;;;;;;;;4165175;28;20052;-80
2024/02/15 06:40:13;;;;;;;47.88;45.47;;;;;;;;;;4181869;28;20037;-77
2024/02/15 06:42:19;;;;;;;46.28;44.22;;;;;;;;;;4180570;28;20056;-77
2024/02/15 06:44:23;;;;;;;43.67;41.45;;;;;;;;;;4182489;28;20071;-86
2024/02/15 06:46:28;;;;;;;46.75;44.25;;;;;;;;;;4116698;28;20057;-86
2024/02/15 06:48:32;;;;;;;;;;;;;;;;;;4183442;28;20527;-85
2024/02/15 06:50:37;;;;;;;47.42;44.72;;;;;;;;;;4165092;28;19932;-85
2024/02/15 06:52:46;;;;;;;47.45;45.05;;;;;;;;;;4165090;28;20041;-85
2024/02/15 06:54:51;;;;;;;49.33;46.22;;;;;;;;;;4165395;28;20037;-85
2024/02/15 06:57:20;;;;;;;55.70;51.08;;;;;;;;;;4182664;28;20040;-86
2024/02/15 06:59:22;;;;;;;53.78;50.33;;;;;;;;;;4099894;29;20047;-86
2024/02/15 07:01:25;;;;;;;42.75;40.55;;;;;;;;;;4099678;28;20051;-86
2024/02/15 07:03:33;;;;;;;44.83;42.72;;;;;;;;;;4083725;29;20055;-85
2024/02/15 07:05:35;;;;;;;43.15;41.33;;;;;;;;;;4084209;29;20048;-86
2024/02/15 07:08:18;;;;;;;40.30;38.75;;;;;;;;;;4083867;29;20047;-85
2024/02/15 07:10:21;;;;;;;41.67;40.10;;;;;;;;;;3991142;29;20050;-85
2024/02/15 07:12:37;;;;;;;44.65;42.55;;;;;;;;;;4020764;29;20516;-85
2024/02/15 07:14:44;;;;;;;46.67;44.13;;;;;;;;;;4006327;29;20087;-85
2024/02/15 07:17:21;;;;;;;45.13;42.85;;;;;;;;;;4006431;29;20504;-85
2024/02/15 07:19:27;;;;;;;46.30;44.03;;;;;;;;;;3991036;29;20141;-85
2024/02/15 07:21:40;;;;;;;45.33;42.97;;;;;;;;;;3991282;29;20050;-84
2024/02/15 07:23:42;;;;;;;42.60;40.70;;;;;;;;;;3991287;29;20061;-85
2024/02/15 07:25:48;;;;;;;40.70;39.22;;;;;;;;;;3991147;29;20087;-85
2024/02/15 07:28:14;;;;;;;41.72;39.78;;;;;;;;;;3991288;29;20055;-86
2024/02/15 07:30:22;;;;;;;39.92;38.35;;;;;;;;;;3991251;29;20142;-86
2024/02/15 07:33:02;;;;;;;41.22;39.72;;;;;;;;;;3991400;29;20042;-85
2024/02/15 07:35:07;;;;;;;40.35;38.95;;;;;;;;;;3931418;30;20147;-86
2024/02/15 07:37:43;;;;;;;37.88;36.42;;;;;;;;;;4011759;29;20206;-86
2024/02/15 07:39:59;;;;;;;45.22;42.67;;;;;;;;;;4194922;28;20391;-59
2024/02/15 07:42:01;;;;;;;42.60;40.60;;;;;;;;;;4195018;28;20411;-59
2024/02/15 07:44:03;;;;;;;43.63;41.45;;;;;;;;;;4194693;28;20534;-59
2024/02/15 07:46:04;;;;;;;41.40;39.23;;;;;;;;;;4194860;28;20036;-58
2024/02/15 07:48:06;;;;;;;41.05;39.15;;;;;;;;;;4195127;28;20781;-59
2024/02/15 07:50:09;;;;;;;40.60;38.53;;;;;;;;;;4194689;28;20551;-59
2024/02/15 07:52:11;;;;;;;;;;;;;;;;;;4195540;28;20040;-59
2024/02/15 07:54:12;;;;;;;41.40;39.70;;;;;;;;;;4194680;28;20272;-59
2024/02/15 07:56:15;;;;;;;39.37;37.70;;;;;;;;;;4194961;28;20090;-59
2024/02/15 07:58:18;;;;;;;37.35;35.97;;;;;;;;;;4194928;28;20298;-59
2024/02/15 08:00:20;;;;;;;37.58;36.17;;;;;;;;;;4194635;28;20045;-59
2024/02/15 08:02:22;;;;;;;51.10;46.55;;;;;;;;;;4193405;28;20039;-59
2024/02/15 08:04:24;;;;;;;44.95;41.75;;;;;;;;;;4194666;28;20060;-59
2024/02/15 08:06:27;;;;;;;46.72;43.67;;;;;;;;;;4194479;28;20512;-59
2024/02/15 08:08:30;;;;;;;44.85;42.20;;;;;;;;;;4194570;28;20048;-59
2024/02/15 08:10:33;;;;;;;44.25;41.83;;;;;;;;;;4194453;28;20060;-59
2024/02/15 08:12:35;;;;;;;60.40;55.30;;;;;;;;;;4194503;28;20043;-59
2024/02/15 08:14:36;;;;;;;58.42;53.40;;;;;;;;;;4194435;28;20045;-59
2024/02/15 08:16:40;;;;;;;62.92;57.20;;;;;;;;;;4194367;28;20040;-59
2024/02/15 08:18:43;;;;;;;56.78;52.45;;;;;;;;;;4194345;28;20041;-60
2024/02/15 08:20:45;;;;;;;44.38;41.85;;;;;;;;;;4194055;28;20033;-59
2024/02/15 08:22:47;;;;;;;47.17;43.97;;;;;;;;;;4177825;28;20050;-60
2024/02/15 08:24:51;;;;;;;44.95;42.55;;;;;;;;;;4177585;28;20497;-60
2024/02/15 08:26:54;;;;;;;41.35;38.90;;;;;;;;;;4194060;28;20045;-60
2024/02/15 08:28:56;;;;;;;42.80;40.75;;;;;;;;;;4194485;28;20037;-60
2024/02/15 08:30:58;;;;;;;48.30;45.22;;;;;;;;;;4192903;28;20041;-60
2024/02/15 08:32:59;;;;;;;46.57;43.43;;;;;;;;;;4194104;28;20045;-59
2024/02/15 08:35:01;;;;;;;45.65;43.10;;;;;;;;;;4193850;28;20110;-59
2024/02/15 08:37:03;;;;;;;45.13;42.00;;;;;;;;;;4194034;28;20079;-60
2024/02/15 08:39:05;;;;;;;47.90;45.08;;;;;;;;;;4193729;28;20370;-59
2024/02/15 08:41:08;;;;;;;42.22;40.00;;;;;;;;;;4193957;28;20080;-59
2024/02/15 08:43:10;;;;;;;43.33;41.28;;;;;;;;;;4193826;28;20091;-59
2024/02/15 08:45:12;;;;;;;;;;;;;;;;;;4194112;28;20488;-60
2024/02/15 08:47:14;;;;;;;32.92;31.92;;;;;;;;;;4192463;28;19928;-60
2024/02/15 08:49:15;;;;;;;36.83;35.65;;;;;;;;;;4193785;28;20520;-59
2024/02/15 08:51:17;;;;;;;35.10;34.10;;;;;;;;;;4183213;28;20056;-60
2024/02/15 08:53:22;;;;;;;33.45;32.13;;;;;;;;;;4182959;28;20099;-60
2024/02/15 08:55:26;;;;;;;33.78;32.40;;;;;;;;;;4182850;28;20121;-60
2024/02/15 08:57:28;;;;;;;32.97;31.77;;;;;;;;;;4182735;28;20049;-60
2024/02/15 08:59:30;;;;;;;36.58;34.70;;;;;;;;;;4182684;28;20116;-60
2024/02/15 09:01:31;;;;;;;35.47;34.03;;;;;;;;;;4181662;28;20044;-59
2024/02/15 09:03:33;;;;;;;36.92;35.70;;;;;;;;;;4182884;28;20409;-59
2024/02/15 09:05:34;;;;;;;34.67;33.25;;;;;;;;;;4182671;28;20041;-60
2024/02/15 09:07:36;;;;;;;33.17;32.13;;;;;;;;;;4182886;28;20056;-59
2024/02/15 09:09:38;;;;;;;34.63;33.33;;;;;;;;;;4182375;28;20041;-60
2024/02/15 09:11:39;;;;;;;33.67;32.47;;;;;;;;;;4182457;28;20072;-59
2024/02/15 09:13:41;;;;;;;35.45;34.08;;;;;;;;;;4182454;28;20064;-59
2024/02/15 09:15:43;;;;;;;35.70;34.30;;;;;;;;;;4182578;28;20044;-60
2024/02/15 09:17:45;;;;;;;36.30;34.65;;;;;;;;;;4176071;28;20501;-59
2024/02/15 09:19:51;;;;;;;40.28;37.92;;;;;;;;;;4165933;28;20073;-60
2024/02/15 09:21:55;;;;;;;30.90;29.77;;;;;;;;;;4172666;28;20086;-60
2024/02/15 09:23:56;;;;;;;34.50;33.33;;;;;;;;;;4182374;28;20040;-60
2024/02/15 09:25:59;;;;;;;34.67;33.47;;;;;;;;;;4182213;28;20072;-60
2024/02/15 09:28:00;;;;;;;33.08;31.77;;;;;;;;;;4182343;28;20041;-60
2024/02/15 09:30:02;;;;;;;33.05;32.05;;;;;;;;;;4182222;28;20049;-60
2024/02/15 09:32:04;;;;;;;32.80;31.80;;;;;;;;;;4182264;28;20052;-60
2024/02/15 09:34:06;;;;;;;32.42;31.50;;;;;;;;;;4182265;28;20033;-60
2024/02/15 09:36:08;;;;;;;;;;;;;;;;;;4182683;28;20044;-60
2024/02/15 09:38:10;;;;;;;32.75;31.55;;;;;;;;;;4181988;28;19956;-60
2024/02/15 09:40:13;;;;;;;31.75;30.80;;;;;;;;;;4182115;28;20083;-60
2024/02/15 09:42:14;;;;;;;34.33;32.83;;;;;;;;;;4182090;28;20228;-60
2024/02/15 09:44:16;;;;;;;33.87;32.37;;;;;;;;;;4181977;28;20037;-60
2024/02/15 09:46:18;;;;;;;30.65;29.60;;;;;;;;;;4182006;28;20396;-59
2024/02/15 09:48:22;;;;;;;30.40;29.55;;;;;;;;;;4182199;28;20037;-61
2024/02/15 09:50:25;;;;;;;28.70;27.90;;;;;;;;;;4182014;28;20049;-60
2024/02/15 09:52:31;;;;;;;29.05;27.77;;;;;;;;;;4181959;28;20607;-60
2024/02/15 09:54:36;;;;;;;30.80;29.60;;;;;;;;;;4180904;28;20056;-60
2024/02/15 09:56:38;;;;;;;30.50;29.40;;;;;;;;;;4181823;28;20478;-60
2024/02/15 09:58:39;;;;;;;30.27;29.10;;;;;;;;;;4181866;28;20055;-60
2024/02/15 10:00:43;;;;;;;29.08;27.95;;;;;;;;;;4180204;28;20045;-60
2024/02/15 10:02:46;;;;;;;30.35;29.10;;;;;;;;;;4180600;28;20064;-61
2024/02/15 10:04:50;;;;;;;26.58;25.58;;;;;;;;;;4181732;28;20124;-60
2024/02/15 10:06:52;;;;;;;27.90;27.02;;;;;;;;;;4181770;28;20447;-60
2024/02/15 10:09:14;;;;;;;26.77;25.50;;;;;;;;;;4181722;28;20065;-60
2024/02/15 10:11:15;;;;;;;24.25;23.23;;;;;;;;;;4181644;28;20033;-60
2024/02/15 10:13:22;;;;;;;23.98;22.98;;;;;;;;;;4181232;28;20041;-60
2024/02/15 10:15:28;;;;;;;19.95;19.45;;;;;;;;;;4165045;28;20107;-60
2024/02/15 10:17:35;;;;;;;22.55;21.42;;;;;;;;;;4165511;28;20041;-60
2024/02/15 10:19:42;;;;;;;21.65;20.70;;;;;;;;;;4175553;28;20091;-60
2024/02/15 10:21:43;;;;;;;23.40;22.27;;;;;;;;;;4180647;28;20036;-60
2024/02/15 10:24:05;;;;;;;22.73;21.50;;;;;;;;;;4181223;28;20048;-60
2024/02/15 10:26:19;;;;;;;19.90;18.92;;;;;;;;;;4181681;28;20045;-60
2024/02/15 10:28:23;;;;;;;19.98;19.27;;;;;;;;;;4181453;28;20136;-59
2024/02/15 10:30:26;;;;;;;20.55;19.58;;;;;;;;;;4181350;28;20045;-60
2024/02/15 10:32:34;;;;;;;18.23;17.27;;;;;;;;;;4167025;28;20355;-60
2024/02/15 10:34:44;;;;;;;17.92;17.30;;;;;;;;;;4165011;28;20042;-60
2024/02/15 10:36:46;;;;;;;18.80;17.88;;;;;;;;;;4174401;28;20037;-60
2024/02/15 10:38:49;;;;;;;17.42;16.42;;;;;;;;;;4164553;28;20602;-60
2024/02/15 10:41:02;;;;;;;13.05;12.18;;;;;;;;;;4165088;28;20083;-60
2024/02/15 10:43:05;;;;;;;10.05;9.70;;;;;;;;;;4166906;28;20064;-60
2024/02/15 10:45:10;;;;;;;10.32;9.55;;;;;;;;;;4166202;28;20045;-60
2024/02/15 10:47:14;;;;;;;9.93;9.57;;;;;;;;;;4195866;28;20045;-60
2024/02/15 10:49:16;;;;;;;10.95;10.45;;;;;;;;;;4180742;28;20483;-59
2024/02/15 10:51:18;;;;;;;9.57;9.18;;;;;;;;;;4171928;28;20516;-60
2024/02/15 10:53:23;;;;;;;8.65;8.45;;;;;;;;;;4173756;28;20048;-61
2024/02/15 10:55:43;;;;;;;10.02;9.30;;;;;;;;;;4176284;28;20065;-60
2024/02/15 10:57:50;;;;;;;9.80;9.20;;;;;;;;;;4173727;28;20059;-60
2024/02/15 10:59:54;;;;;;;13.68;12.77;;;;;;;;;;4171060;28;20626;-60
2024/02/15 11:01:58;;;;;;;8.75;7.93;;;;;;;;;;4170021;28;20104;-60
2024/02/15 11:04:03;;;;;;;8.27;7.97;;;;;;;;;;4165229;28;20100;-60
2024/02/15 11:06:06;;;;;;;8.20;7.78;;;;;;;;;;4176305;28;20040;-60
2024/02/15 11:08:09;;;;;;;12.00;10.82;;;;;;;;;;4170024;28;20073;-60
2024/02/15 11:10:11;;;;;;;10.65;9.82;;;;;;;;;;4171793;28;20075;-60
2024/02/15 11:12:13;;;;;;;7.60;7.25;;;;;;;;;;4178365;28;20053;-60
2024/02/15 11:14:34;;;;;;;6.70;6.38;;;;;;;;;;4177197;28;20404;-60
2024/02/15 11:16:43;;;;;;;5.85;5.65;;;;;;;;;;4180603;28;20045;-60
2024/02/15 11:18:48;;;;;;;9.25;8.20;;;;;;;;;;4180666;28;20418;-60
2024/02/15 11:20:52;;;;;;;3.70;3.47;;;;;;;;;;4173456;28;20029;-60
2024/02/15 11:22:57;;;;;;;4.07;3.97;;;;;;;;;;4164515;28;20480;-60
2024/02/15 11:24:59;;;;;;;6.50;6.20;;;;;;;;;;4176325;28;20040;-60
2024/02/15 11:27:06;;;;;;;8.63;7.90;;;;;;;;;;4180128;28;20033;-60
2024/02/15 11:29:08;;;;;;;7.97;7.57;;;;;;;;;;4171729;28;20036;-60
2024/02/15 11:31:12;;;;;;;6.65;6.28;;;;;;;;;;4175194;28;20044;-58
2024/02/15 11:33:36;;;;;;;6.43;6.05;;;;;;;;;;4164114;28;20087;-58
2024/02/15 11:35:58;;;;;;;3.15;3.05;;;;;;;;;;4165730;28;20130;-58
2024/02/15 11:38:03;;;;;;;3.03;2.70;;;;;;;;;;4169572;28;20294;-57
2024/02/15 11:40:09;;;;;;;3.03;2.88;;;;;;;;;;4170344;28;20493;-57
2024/02/15 11:42:31;;;;;;;2.90;2.80;;;;;;;;;;4167721;28;20142;-57
2024/02/15 11:44:32;;;;;;;3.10;3.00;;;;;;;;;;4176028;28;20052;-57
2024/02/15 11:46:34;;;;;;;3.37;3.17;;;;;;;;;;4175621;28;20091;-58
2024/02/15 11:48:39;;;;;;;;;;;;;;;;;;4168822;28;20041;-57
2024/02/15 11:50:41;;;;;;;4.72;3.55;;;;;;;;;;4176310;28;19920;-58
2024/02/15 11:52:45;;;;;;;2.72;2.63;;;;;;;;;;4165148;28;20069;-58
2024/02/15 11:54:48;;;;;;;3.33;3.13;;;;;;;;;;4164587;28;20050;-57
2024/02/15 11:56:54;;;;;;;;;;;;;;;;;;4164397;28;20092;-58
2024/02/15 11:59:04;;;;;;;2.03;2.03;;;;;;;;;;4162689;28;19921;-57
2024/02/15 12:19:56;;;;;;;3.25;2.65;;;;;;;;;;4180571;28;20493;-58
2024/02/15 12:21:59;;;;;;;2.05;2.05;;;;;;;;;;4176064;28;20493;-58
2024/02/15 12:24:05;;;;;;;2.75;2.65;;;;;;;;;;4177339;28;20044;-57
2024/02/15 12:26:08;;;;;;;2.50;2.30;;;;;;;;;;4165706;28;20427;-58
2024/02/15 12:28:13;;;;;;;1.98;1.88;;;;;;;;;;4167277;28;20547;-58
2024/02/15 12:30:20;;;;;;;1.60;1.60;;;;;;;;;;4168954;28;20052;-58
2024/02/15 12:32:23;;;;;;;2.05;2.05;;;;;;;;;;4180109;28;20053;-58
2024/02/15 12:34:24;;;;;;;1.92;1.67;;;;;;;;;;4183348;28;20124;-58
2024/02/15 12:36:27;;;;;;;1.80;1.70;;;;;;;;;;4183387;28;20123;-58